sensor_id;sensor_type;location;lat;lon;timestamp;pressure;altitude;pressure_sealevel;temperature;humidity
12077;BME280;12420;42.676;23.262;2023-03-13T00:01:48;94810.06;;;3.27;71.26
12077;BME280;12420;42.676;23.262;2023-03-13T00:04:17;94775.00;;;3.11;71.02
12077;BME280;12420;42.676;23.262;2023-03-13T00:06:44;94774.81;;;3.14;71.27
12077;BME280;12420;42.676;23.262;2023-03-13T00:09:13;94723.47;;;2.74;70.77
12077;BME280;12420;42.676;23.262;2023-03-13T00:11:41;94794.16;;;3.11;70.17
12077;BME280;12420;42.676;23.262;2023-03-13T00:14:08;94775.88;;;2.87;71.27
12077;BME280;12420;42.676;23.262;2023-03-13T00:16:35;94700.03;;;2.37;71.83
12077;BME280;12420;42.676;23.262;2023-03-13T00:19:04;94810.06;;;2.97;71.63
12077;BME280;12420;42.676;23.262;2023-03-13T00:21:33;94817.44;;;2.91;72.81
12077;BME280;12420;42.676;23.262;2023-03-13T00:24:02;94803.56;;;2.95;72.91
12077;BME280;12420;42.676;23.262;2023-03-13T00:26:29;94759.97;;;2.71;73.72
12077;BME280;12420;42.676;23.262;2023-03-13T00:28:56;94805.19;;;3.01;72.31
12077;BME280;12420;42.676;23.262;2023-03-13T00:31:25;94800.38;;;2.96;73.98
12077;BME280;12420;42.676;23.262;2023-03-13T00:33:53;94783.06;;;2.70;74.09
12077;BME280;12420;42.676;23.262;2023-03-13T00:36:22;94800.00;;;2.89;74.54
12077;BME280;12420;42.676;23.262;2023-03-13T00:38:51;94798.03;;;2.89;75.29
12077;BME280;12420;42.676;23.262;2023-03-13T00:41:20;94767.78;;;2.48;74.13
12077;BME280;12420;42.676;23.262;2023-03-13T00:43:47;94768.88;;;2.42;73.96
12077;BME280;12420;42.676;23.262;2023-03-13T00:46:17;94805.84;;;2.67;73.93
12077;BME280;12420;42.676;23.262;2023-03-13T00:48:44;94796.97;;;2.57;74.04
12077;BME280;12420;42.676;23.262;2023-03-13T00:51:12;94716.31;;;2.02;74.29
12077;BME280;12420;42.676;23.262;2023-03-13T00:53:39;94778.38;;;2.31;75.42
12077;BME280;12420;42.676;23.262;2023-03-13T00:56:09;94777.84;;;2.42;76.21
12077;BME280;12420;42.676;23.262;2023-03-13T00:58:38;94802.00;;;2.73;77.03
12077;BME280;12420;42.676;23.262;2023-03-13T01:01:06;94793.13;;;2.64;77.74
12077;BME280;12420;42.676;23.262;2023-03-13T01:03:35;94814.66;;;2.47;77.74
12077;BME280;12420;42.676;23.262;2023-03-13T01:06:06;94716.50;;;1.99;77.42
12077;BME280;12420;42.676;23.262;2023-03-13T01:08:34;94773.69;;;2.47;77.24
12077;BME280;12420;42.676;23.262;2023-03-13T01:11:05;94784.34;;;2.59;75.96
12077;BME280;12420;42.676;23.262;2023-03-13T01:13:34;94786.81;;;2.57;76.15
12077;BME280;12420;42.676;23.262;2023-03-13T01:16:02;94784.75;;;2.52;77.56
12077;BME280;12420;42.676;23.262;2023-03-13T01:18:29;94790.97;;;2.53;77.70
12077;BME280;12420;42.676;23.262;2023-03-13T01:20:56;94725.44;;;1.99;77.82
12077;BME280;12420;42.676;23.262;2023-03-13T01:23:23;94778.88;;;2.30;77.64
12077;BME280;12420;42.676;23.262;2023-03-13T01:25:50;94675.66;;;1.65;77.66
12077;BME280;12420;42.676;23.262;2023-03-13T01:28:17;94773.84;;;2.13;76.68
12077;BME280;12420;42.676;23.262;2023-03-13T01:30:45;94736.03;;;1.82;77.17
12077;BME280;12420;42.676;23.262;2023-03-13T01:33:12;94772.06;;;2.10;78.37
12077;BME280;12420;42.676;23.262;2023-03-13T01:35:39;94818.84;;;2.42;76.05
12077;BME280;12420;42.676;23.262;2023-03-13T01:38:05;94810.06;;;2.38;75.86
12077;BME280;12420;42.676;23.262;2023-03-13T01:40:38;94775.47;;;2.20;75.21
12077;BME280;12420;42.676;23.262;2023-03-13T01:43:16;94810.16;;;2.44;75.90
12077;BME280;12420;42.676;23.262;2023-03-13T01:46:11;94807.41;;;2.44;75.85
12077;BME280;12420;42.676;23.262;2023-03-13T01:48:45;94811.84;;;2.41;75.15
12077;BME280;12420;42.676;23.262;2023-03-13T01:51:17;94810.44;;;2.46;76.07
12077;BME280;12420;42.676;23.262;2023-03-13T01:53:49;94742.75;;;1.96;76.83
12077;BME280;12420;42.676;23.262;2023-03-13T01:56:20;94780.56;;;2.27;77.07
12077;BME280;12420;42.676;23.262;2023-03-13T01:58:49;94823.91;;;2.49;78.18
12077;BME280;12420;42.676;23.262;2023-03-13T02:01:19;94829.53;;;2.31;79.19
12077;BME280;12420;42.676;23.262;2023-03-13T02:03:48;94782.81;;;2.14;78.76
12077;BME280;12420;42.676;23.262;2023-03-13T02:06:15;94702.31;;;1.70;79.89
12077;BME280;12420;42.676;23.262;2023-03-13T02:08:46;94831.06;;;2.32;81.08
12077;BME280;12420;42.676;23.262;2023-03-13T02:11:22;94809.69;;;2.45;80.44
12077;BME280;12420;42.676;23.262;2023-03-13T02:13:52;94796.66;;;2.25;79.12
12077;BME280;12420;42.676;23.262;2023-03-13T02:16:21;94818.19;;;2.47;79.28
12077;BME280;12420;42.676;23.262;2023-03-13T02:18:48;94800.34;;;2.22;79.05
12077;BME280;12420;42.676;23.262;2023-03-13T02:21:28;94798.66;;;2.01;79.00
12077;BME280;12420;42.676;23.262;2023-03-13T02:24:01;94811.06;;;1.87;78.79
12077;BME280;12420;42.676;23.262;2023-03-13T02:26:32;94829.03;;;2.17;77.70
12077;BME280;12420;42.676;23.262;2023-03-13T02:28:59;94793.19;;;1.86;77.58
12077;BME280;12420;42.676;23.262;2023-03-13T02:31:26;94875.47;;;2.17;78.11
12077;BME280;12420;42.676;23.262;2023-03-13T02:33:57;94802.53;;;1.94;79.12
12077;BME280;12420;42.676;23.262;2023-03-13T02:36:26;94804.84;;;1.86;79.56
12077;BME280;12420;42.676;23.262;2023-03-13T02:38:58;94849.25;;;2.11;78.80
12077;BME280;12420;42.676;23.262;2023-03-13T02:41:27;94759.66;;;1.37;79.33
12077;BME280;12420;42.676;23.262;2023-03-13T02:43:56;94813.19;;;1.59;79.42
12077;BME280;12420;42.676;23.262;2023-03-13T02:46:23;94891.44;;;2.10;79.86
12077;BME280;12420;42.676;23.262;2023-03-13T02:48:51;94886.16;;;2.06;81.40
12077;BME280;12420;42.676;23.262;2023-03-13T02:51:23;94878.25;;;2.08;80.98
12077;BME280;12420;42.676;23.262;2023-03-13T02:53:53;94867.31;;;2.08;80.78
12077;BME280;12420;42.676;23.262;2023-03-13T02:56:23;94879.28;;;2.11;80.92
12077;BME280;12420;42.676;23.262;2023-03-13T02:58:51;94828.19;;;1.63;80.25
12077;BME280;12420;42.676;23.262;2023-03-13T03:01:19;94880.50;;;2.10;80.94
12077;BME280;12420;42.676;23.262;2023-03-13T03:03:46;94876.75;;;2.07;80.11
12077;BME280;12420;42.676;23.262;2023-03-13T03:06:13;94878.19;;;1.93;81.30
12077;BME280;12420;42.676;23.262;2023-03-13T03:08:39;94822.16;;;1.50;80.28
12077;BME280;12420;42.676;23.262;2023-03-13T03:11:08;94842.06;;;1.74;82.00
12077;BME280;12420;42.676;23.262;2023-03-13T03:13:35;94904.72;;;1.93;81.54
12077;BME280;12420;42.676;23.262;2023-03-13T03:16:05;94880.09;;;2.02;80.75
12077;BME280;12420;42.676;23.262;2023-03-13T03:18:35;94891.97;;;1.99;79.64
12077;BME280;12420;42.676;23.262;2023-03-13T03:21:03;94898.75;;;2.04;80.09
12077;BME280;12420;42.676;23.262;2023-03-13T03:23:31;94893.53;;;1.91;79.72
12077;BME280;12420;42.676;23.262;2023-03-13T03:25:58;94884.16;;;1.83;80.01
12077;BME280;12420;42.676;23.262;2023-03-13T03:28:24;94874.59;;;1.54;79.75
12077;BME280;12420;42.676;23.262;2023-03-13T03:30:51;94913.72;;;2.08;80.36
12077;BME280;12420;42.676;23.262;2023-03-13T03:33:18;94909.19;;;2.05;81.68
12077;BME280;12420;42.676;23.262;2023-03-13T03:35:47;94886.53;;;1.90;82.72
12077;BME280;12420;42.676;23.262;2023-03-13T03:38:14;94878.56;;;1.77;80.21
12077;BME280;12420;42.676;23.262;2023-03-13T03:40:41;94896.19;;;1.76;81.04
12077;BME280;12420;42.676;23.262;2023-03-13T03:43:07;94919.59;;;1.92;82.12
12077;BME280;12420;42.676;23.262;2023-03-13T03:45:34;94929.28;;;1.93;82.29
12077;BME280;12420;42.676;23.262;2023-03-13T03:48:01;94943.13;;;2.13;80.23
12077;BME280;12420;42.676;23.262;2023-03-13T03:50:28;94887.81;;;1.46;79.57
12077;BME280;12420;42.676;23.262;2023-03-13T03:52:56;94951.41;;;1.95;80.03
12077;BME280;12420;42.676;23.262;2023-03-13T03:55:23;94952.03;;;1.99;80.82
12077;BME280;12420;42.676;23.262;2023-03-13T03:57:50;94961.41;;;1.98;82.08
12077;BME280;12420;42.676;23.262;2023-03-13T04:00:19;94964.44;;;2.00;82.93
12077;BME280;12420;42.676;23.262;2023-03-13T04:02:47;94947.59;;;2.02;81.22
12077;BME280;12420;42.676;23.262;2023-03-13T04:05:14;94837.13;;;1.30;81.02
12077;BME280;12420;42.676;23.262;2023-03-13T04:07:41;94949.63;;;1.92;81.38
12077;BME280;12420;42.676;23.262;2023-03-13T04:10:11;95023.94;;;1.96;82.97
12077;BME280;12420;42.676;23.262;2023-03-13T04:12:39;94971.28;;;1.95;84.18
12077;BME280;12420;42.676;23.262;2023-03-13T04:15:08;94963.88;;;1.96;84.71
12077;BME280;12420;42.676;23.262;2023-03-13T04:17:35;94950.47;;;1.74;85.36
12077;BME280;12420;42.676;23.262;2023-03-13T04:20:02;94947.88;;;1.70;84.89
12077;BME280;12420;42.676;23.262;2023-03-13T04:22:31;94988.78;;;1.80;85.56
12077;BME280;12420;42.676;23.262;2023-03-13T04:24:58;94897.41;;;1.33;85.21
12077;BME280;12420;42.676;23.262;2023-03-13T04:27:28;94883.97;;;1.20;86.31
12077;BME280;12420;42.676;23.262;2023-03-13T04:29:55;95012.59;;;1.79;86.08
12077;BME280;12420;42.676;23.262;2023-03-13T04:32:22;94998.09;;;1.64;86.88
12077;BME280;12420;42.676;23.262;2023-03-13T04:34:49;95025.38;;;1.64;87.85
12077;BME280;12420;42.676;23.262;2023-03-13T04:37:17;94972.69;;;1.39;88.45
12077;BME280;12420;42.676;23.262;2023-03-13T04:39:44;94992.50;;;1.49;87.97
12077;BME280;12420;42.676;23.262;2023-03-13T04:42:11;95008.56;;;1.56;88.50
12077;BME280;12420;42.676;23.262;2023-03-13T04:44:40;94998.59;;;1.44;89.03
12077;BME280;12420;42.676;23.262;2023-03-13T04:47:07;95025.50;;;1.79;88.12
12077;BME280;12420;42.676;23.262;2023-03-13T04:49:34;95031.31;;;1.53;87.64
12077;BME280;12420;42.676;23.262;2023-03-13T04:52:01;95031.09;;;1.75;88.47
12077;BME280;12420;42.676;23.262;2023-03-13T04:54:28;95016.88;;;1.62;88.97
12077;BME280;12420;42.676;23.262;2023-03-13T04:56:55;95037.78;;;1.74;87.33
12077;BME280;12420;42.676;23.262;2023-03-13T04:59:23;95035.19;;;1.80;89.27
12077;BME280;12420;42.676;23.262;2023-03-13T05:01:51;94964.06;;;1.32;87.53
12077;BME280;12420;42.676;23.262;2023-03-13T05:04:18;94970.13;;;1.26;87.83
12077;BME280;12420;42.676;23.262;2023-03-13T05:06:45;95018.13;;;1.51;87.73
12077;BME280;12420;42.676;23.262;2023-03-13T05:09:11;95017.19;;;1.64;87.90
12077;BME280;12420;42.676;23.262;2023-03-13T05:11:38;95030.66;;;1.67;86.81
12077;BME280;12420;42.676;23.262;2023-03-13T05:14:06;95025.19;;;1.67;87.48
12077;BME280;12420;42.676;23.262;2023-03-13T05:16:35;94993.31;;;1.22;86.28
12077;BME280;12420;42.676;23.262;2023-03-13T05:19:04;95062.47;;;1.89;87.00
12077;BME280;12420;42.676;23.262;2023-03-13T05:21:30;95047.25;;;2.06;85.68
12077;BME280;12420;42.676;23.262;2023-03-13T05:23:57;95007.31;;;1.76;84.07
12077;BME280;12420;42.676;23.262;2023-03-13T05:26:24;95068.38;;;2.30;83.51
12077;BME280;12420;42.676;23.262;2023-03-13T05:28:51;95048.16;;;2.36;83.77
12077;BME280;12420;42.676;23.262;2023-03-13T05:31:17;95105.63;;;2.51;84.26
12077;BME280;12420;42.676;23.262;2023-03-13T05:33:44;95001.25;;;2.14;84.26
12077;BME280;12420;42.676;23.262;2023-03-13T05:36:13;95077.97;;;2.58;84.30
12077;BME280;12420;42.676;23.262;2023-03-13T05:38:40;95071.34;;;2.50;83.77
12077;BME280;12420;42.676;23.262;2023-03-13T05:41:06;95103.00;;;2.57;83.39
12077;BME280;12420;42.676;23.262;2023-03-13T05:43:33;95006.84;;;2.10;80.99
12077;BME280;12420;42.676;23.262;2023-03-13T05:46:00;95075.19;;;2.68;82.26
12077;BME280;12420;42.676;23.262;2023-03-13T05:48:27;95003.69;;;2.36;82.55
12077;BME280;12420;42.676;23.262;2023-03-13T05:50:54;94960.84;;;1.94;81.43
12077;BME280;12420;42.676;23.262;2023-03-13T05:53:22;95058.38;;;3.08;79.33
12077;BME280;12420;42.676;23.262;2023-03-13T05:55:48;95083.94;;;3.44;78.28
12077;BME280;12420;42.676;23.262;2023-03-13T05:58:16;95081.06;;;3.38;78.34
12077;BME280;12420;42.676;23.262;2023-03-13T06:00:44;95085.72;;;3.47;76.98
12077;BME280;12420;42.676;23.262;2023-03-13T06:03:11;95038.41;;;3.17;76.70
12077;BME280;12420;42.676;23.262;2023-03-13T06:05:37;94971.34;;;2.68;75.07
12077;BME280;12420;42.676;23.262;2023-03-13T06:08:05;95100.38;;;3.74;74.58
12077;BME280;12420;42.676;23.262;2023-03-13T06:10:34;95000.41;;;3.19;75.34
12077;BME280;12420;42.676;23.262;2023-03-13T06:13:01;95087.09;;;3.81;75.64
12077;BME280;12420;42.676;23.262;2023-03-13T06:15:28;95087.88;;;3.82;75.50
12077;BME280;12420;42.676;23.262;2023-03-13T06:17:54;95096.25;;;3.78;74.53
12077;BME280;12420;42.676;23.262;2023-03-13T06:20:21;95097.00;;;3.79;75.29
12077;BME280;12420;42.676;23.262;2023-03-13T06:22:48;95060.19;;;3.65;72.96
12077;BME280;12420;42.676;23.262;2023-03-13T06:25:15;95044.50;;;3.65;71.45
12077;BME280;12420;42.676;23.262;2023-03-13T06:27:43;95137.34;;;4.08;69.94
12077;BME280;12420;42.676;23.262;2023-03-13T06:30:11;95078.13;;;3.81;73.05
12077;BME280;12420;42.676;23.262;2023-03-13T06:32:37;95089.19;;;4.16;73.02
12077;BME280;12420;42.676;23.262;2023-03-13T06:35:05;95111.00;;;4.25;71.36
12077;BME280;12420;42.676;23.262;2023-03-13T06:37:34;95071.69;;;4.28;70.04
12077;BME280;12420;42.676;23.262;2023-03-13T06:40:03;95026.00;;;3.75;69.40
12077;BME280;12420;42.676;23.262;2023-03-13T06:42:31;94981.72;;;3.32;69.02
12077;BME280;12420;42.676;23.262;2023-03-13T06:45:00;95076.16;;;3.96;69.83
12077;BME280;12420;42.676;23.262;2023-03-13T06:47:29;95058.31;;;4.01;70.16
12077;BME280;12420;42.676;23.262;2023-03-13T06:49:56;95089.84;;;4.26;69.91
12077;BME280;12420;42.676;23.262;2023-03-13T06:52:23;95046.72;;;4.41;72.64
12077;BME280;12420;42.676;23.262;2023-03-13T06:54:50;95089.00;;;4.70;68.71
12077;BME280;12420;42.676;23.262;2023-03-13T06:57:17;95089.16;;;4.81;68.84
12077;BME280;12420;42.676;23.262;2023-03-13T06:59:46;95075.81;;;4.53;65.67
12077;BME280;12420;42.676;23.262;2023-03-13T07:02:15;95068.06;;;4.37;66.25
12077;BME280;12420;42.676;23.262;2023-03-13T07:04:42;94918.81;;;3.62;65.52
12077;BME280;12420;42.676;23.262;2023-03-13T07:07:10;95074.59;;;4.75;65.22
12077;BME280;12420;42.676;23.262;2023-03-13T07:09:37;95072.56;;;4.55;67.11
12077;BME280;12420;42.676;23.262;2023-03-13T07:12:05;94999.81;;;4.54;65.32
12077;BME280;12420;42.676;23.262;2023-03-13T07:14:36;95083.38;;;5.14;65.29
12077;BME280;12420;42.676;23.262;2023-03-13T07:17:04;95096.34;;;5.34;64.45
12077;BME280;12420;42.676;23.262;2023-03-13T07:19:35;95143.47;;;5.33;63.40
12077;BME280;12420;42.676;23.262;2023-03-13T07:22:03;94968.69;;;4.57;64.22
12077;BME280;12420;42.676;23.262;2023-03-13T07:24:34;95051.53;;;4.82;62.85
12077;BME280;12420;42.676;23.262;2023-03-13T07:27:01;95096.19;;;5.23;61.38
12077;BME280;12420;42.676;23.262;2023-03-13T07:29:29;95001.31;;;4.96;61.88
12077;BME280;12420;42.676;23.262;2023-03-13T07:31:58;95082.38;;;5.58;60.72
12077;BME280;12420;42.676;23.262;2023-03-13T07:34:28;94939.78;;;4.35;60.53
12077;BME280;12420;42.676;23.262;2023-03-13T07:36:57;95045.75;;;5.41;60.10
12077;BME280;12420;42.676;23.262;2023-03-13T07:39:28;95066.59;;;5.53;61.40
12077;BME280;12420;42.676;23.262;2023-03-13T07:41:56;94878.13;;;4.25;62.06
12077;BME280;12420;42.676;23.262;2023-03-13T07:44:26;95022.47;;;5.36;61.66
12077;BME280;12420;42.676;23.262;2023-03-13T07:46:57;95087.69;;;5.88;61.18
12077;BME280;12420;42.676;23.262;2023-03-13T07:49:31;95037.84;;;5.49;62.25
12077;BME280;12420;42.676;23.262;2023-03-13T07:52:08;95044.03;;;5.70;60.68
12077;BME280;12420;42.676;23.262;2023-03-13T07:54:35;95061.00;;;5.68;59.92
12077;BME280;12420;42.676;23.262;2023-03-13T07:57:03;95079.31;;;5.77;60.12
12077;BME280;12420;42.676;23.262;2023-03-13T07:59:34;95024.97;;;5.34;61.45
12077;BME280;12420;42.676;23.262;2023-03-13T08:02:03;95048.50;;;5.20;60.76
12077;BME280;12420;42.676;23.262;2023-03-13T08:04:34;94995.25;;;5.33;60.37
12077;BME280;12420;42.676;23.262;2023-03-13T08:07:13;95022.97;;;5.87;60.26
12077;BME280;12420;42.676;23.262;2023-03-13T08:09:46;94914.84;;;5.00;59.15
12077;BME280;12420;42.676;23.262;2023-03-13T08:12:21;94956.97;;;5.23;58.72
12077;BME280;12420;42.676;23.262;2023-03-13T08:14:52;94924.13;;;4.83;59.09
12077;BME280;12420;42.676;23.262;2023-03-13T08:17:28;95019.44;;;5.81;59.98
12077;BME280;12420;42.676;23.262;2023-03-13T08:20:01;95059.28;;;5.71;59.83
12077;BME280;12420;42.676;23.262;2023-03-13T08:22:36;94924.47;;;4.70;59.95
12077;BME280;12420;42.676;23.262;2023-03-13T08:25:09;94932.03;;;5.01;60.58
12077;BME280;12420;42.676;23.262;2023-03-13T08:27:38;95074.84;;;6.32;61.08
12077;BME280;12420;42.676;23.262;2023-03-13T08:30:11;94910.94;;;5.07;60.04
12077;BME280;12420;42.676;23.262;2023-03-13T08:32:40;95076.69;;;6.46;59.96
12077;BME280;12420;42.676;23.262;2023-03-13T08:35:11;95065.47;;;6.18;59.88
12077;BME280;12420;42.676;23.262;2023-03-13T08:37:44;95056.44;;;5.85;60.09
12077;BME280;12420;42.676;23.262;2023-03-13T08:40:14;94944.66;;;5.13;59.73
12077;BME280;12420;42.676;23.262;2023-03-13T08:42:43;95093.81;;;6.29;60.85
12077;BME280;12420;42.676;23.262;2023-03-13T08:45:14;95069.25;;;6.20;60.27
12077;BME280;12420;42.676;23.262;2023-03-13T08:47:42;94978.03;;;5.58;60.57
12077;BME280;12420;42.676;23.262;2023-03-13T08:50:09;94941.16;;;5.13;62.25
12077;BME280;12420;42.676;23.262;2023-03-13T08:52:43;94948.88;;;5.35;62.18
12077;BME280;12420;42.676;23.262;2023-03-13T08:55:17;94985.59;;;5.95;60.73
12077;BME280;12420;42.676;23.262;2023-03-13T08:57:45;95070.22;;;6.49;60.88
12077;BME280;12420;42.676;23.262;2023-03-13T09:00:17;94964.38;;;5.70;60.19
12077;BME280;12420;42.676;23.262;2023-03-13T09:02:50;94947.47;;;5.45;60.53
12077;BME280;12420;42.676;23.262;2023-03-13T09:05:30;95084.16;;;6.77;60.50
12077;BME280;12420;42.676;23.262;2023-03-13T09:08:06;94950.75;;;5.81;60.41
12077;BME280;12420;42.676;23.262;2023-03-13T09:10:33;95055.97;;;6.93;60.78
12077;BME280;12420;42.676;23.262;2023-03-13T09:13:01;95047.34;;;6.69;58.97
12077;BME280;12420;42.676;23.262;2023-03-13T09:15:29;95009.31;;;6.62;57.86
12077;BME280;12420;42.676;23.262;2023-03-13T09:17:57;95069.13;;;7.21;58.49
12077;BME280;12420;42.676;23.262;2023-03-13T09:20:26;95005.34;;;6.74;58.24
12077;BME280;12420;42.676;23.262;2023-03-13T09:23:00;95061.56;;;7.05;59.05
12077;BME280;12420;42.676;23.262;2023-03-13T09:25:27;95056.25;;;6.95;61.26
12077;BME280;12420;42.676;23.262;2023-03-13T09:27:55;94989.97;;;6.99;58.21
12077;BME280;12420;42.676;23.262;2023-03-13T09:30:26;95008.75;;;7.01;57.82
12077;BME280;12420;42.676;23.262;2023-03-13T09:33:05;95000.84;;;6.71;57.20
12077;BME280;12420;42.676;23.262;2023-03-13T09:35:34;94998.28;;;7.10;57.86
12077;BME280;12420;42.676;23.262;2023-03-13T09:38:03;94996.28;;;7.11;57.69
12077;BME280;12420;42.676;23.262;2023-03-13T09:40:36;95049.16;;;7.37;57.43
12077;BME280;12420;42.676;23.262;2023-03-13T09:43:04;95059.78;;;7.67;58.76
12077;BME280;12420;42.676;23.262;2023-03-13T09:45:32;94986.75;;;7.12;56.81
12077;BME280;12420;42.676;23.262;2023-03-13T09:48:04;95003.88;;;7.50;57.12
12077;BME280;12420;42.676;23.262;2023-03-13T09:50:34;94865.84;;;6.74;56.91
12077;BME280;12420;42.676;23.262;2023-03-13T09:53:10;94955.75;;;7.17;55.88
12077;BME280;12420;42.676;23.262;2023-03-13T09:55:40;94908.63;;;6.87;57.14
12077;BME280;12420;42.676;23.262;2023-03-13T09:58:14;95010.19;;;7.78;54.89
12077;BME280;12420;42.676;23.262;2023-03-13T10:00:46;95036.72;;;7.59;55.50
12077;BME280;12420;42.676;23.262;2023-03-13T10:03:21;95020.75;;;8.14;55.97
12077;BME280;12420;42.676;23.262;2023-03-13T10:05:52;94983.91;;;7.94;54.40
12077;BME280;12420;42.676;23.262;2023-03-13T10:08:25;94938.78;;;7.35;56.31
12077;BME280;12420;42.676;23.262;2023-03-13T10:10:56;94856.59;;;6.94;55.53
12077;BME280;12420;42.676;23.262;2023-03-13T10:13:36;94939.31;;;7.62;54.69
12077;BME280;12420;42.676;23.262;2023-03-13T10:16:08;94903.47;;;7.23;54.65
12077;BME280;12420;42.676;23.262;2023-03-13T10:18:36;94909.25;;;7.42;54.13
12077;BME280;12420;42.676;23.262;2023-03-13T10:21:15;94927.53;;;7.67;54.19
12077;BME280;12420;42.676;23.262;2023-03-13T10:27:03;94885.19;;;7.42;53.86
12077;BME280;12420;42.676;23.262;2023-03-13T10:29:33;95017.50;;;8.10;55.37
12077;BME280;12420;42.676;23.262;2023-03-13T10:32:01;95011.97;;;8.15;57.06
12077;BME280;12420;42.676;23.262;2023-03-13T10:34:52;94895.97;;;7.46;57.28
12077;BME280;12420;42.676;23.262;2023-03-13T10:37:34;94868.69;;;7.25;56.39
12077;BME280;12420;42.676;23.262;2023-03-13T10:40:13;94830.63;;;7.29;57.19
12077;BME280;12420;42.676;23.262;2023-03-13T10:42:52;94856.44;;;7.43;56.58
12077;BME280;12420;42.676;23.262;2023-03-13T10:45:21;94914.25;;;8.05;55.99
12077;BME280;12420;42.676;23.262;2023-03-13T10:47:53;94943.78;;;8.21;56.63
12077;BME280;12420;42.676;23.262;2023-03-13T10:50:25;95034.50;;;8.81;58.96
12077;BME280;12420;42.676;23.262;2023-03-13T10:52:52;94981.06;;;8.79;57.41
12077;BME280;12420;42.676;23.262;2023-03-13T10:55:21;95016.88;;;9.01;54.05
12077;BME280;12420;42.676;23.262;2023-03-13T10:57:58;94826.09;;;7.66;54.03
12077;BME280;12420;42.676;23.262;2023-03-13T11:00:40;94873.78;;;8.58;54.40
12077;BME280;12420;42.676;23.262;2023-03-13T11:03:16;94837.81;;;8.00;52.39
12077;BME280;12420;42.676;23.262;2023-03-13T11:05:54;94837.78;;;8.11;52.91
12077;BME280;12420;42.676;23.262;2023-03-13T11:08:23;94893.81;;;8.59;52.61
12077;BME280;12420;42.676;23.262;2023-03-13T11:10:58;94801.41;;;8.24;52.94
12077;BME280;12420;42.676;23.262;2023-03-13T11:13:31;94889.13;;;9.01;53.22
12077;BME280;12420;42.676;23.262;2023-03-13T11:16:09;94799.38;;;8.30;54.99
12077;BME280;12420;42.676;23.262;2023-03-13T11:18:50;94793.09;;;8.41;54.14
12077;BME280;12420;42.676;23.262;2023-03-13T11:21:29;94820.16;;;8.48;53.09
12077;BME280;12420;42.676;23.262;2023-03-13T11:24:12;94898.13;;;9.07;54.52
12077;BME280;12420;42.676;23.262;2023-03-13T11:26:54;94835.25;;;8.88;52.76
12077;BME280;12420;42.676;23.262;2023-03-13T11:29:45;94767.78;;;8.31;53.90
12077;BME280;12420;42.676;23.262;2023-03-13T11:32:22;94757.28;;;8.24;52.25
12077;BME280;12420;42.676;23.262;2023-03-13T11:34:55;94870.69;;;9.20;52.89
12077;BME280;12420;42.676;23.262;2023-03-13T11:37:36;94909.84;;;9.24;51.58
12077;BME280;12420;42.676;23.262;2023-03-13T11:40:28;94819.06;;;8.68;52.49
12077;BME280;12420;42.676;23.262;2023-03-13T11:43:13;94773.91;;;8.65;51.86
12077;BME280;12420;42.676;23.262;2023-03-13T11:46:07;94920.06;;;9.71;52.03
12077;BME280;12420;42.676;23.262;2023-03-13T11:52:07;94851.38;;;8.73;52.53
12077;BME280;12420;42.676;23.262;2023-03-13T11:55:08;94768.00;;;8.44;52.60
12077;BME280;12420;42.676;23.262;2023-03-13T11:57:53;94795.41;;;8.73;52.18
12077;BME280;12420;42.676;23.262;2023-03-13T12:00:32;94803.22;;;9.10;52.58
12077;BME280;12420;42.676;23.262;2023-03-13T12:03:15;94839.66;;;9.39;52.01
12077;BME280;12420;42.676;23.262;2023-03-13T12:05:50;94804.84;;;9.30;52.44
12077;BME280;12420;42.676;23.262;2023-03-13T12:08:25;94818.19;;;9.56;52.14
12077;BME280;12420;42.676;23.262;2023-03-13T12:11:05;94701.97;;;8.94;52.34
12077;BME280;12420;42.676;23.262;2023-03-13T12:13:41;94704.38;;;8.73;50.54
12077;BME280;12420;42.676;23.262;2023-03-13T12:16:18;94751.00;;;9.42;52.21
12077;BME280;12420;42.676;23.262;2023-03-13T12:18:51;94791.38;;;9.75;50.55
12077;BME280;12420;42.676;23.262;2023-03-13T12:21:25;94701.72;;;9.22;50.27
12077;BME280;12420;42.676;23.262;2023-03-13T12:24:03;94745.88;;;9.52;50.47
12077;BME280;12420;42.676;23.262;2023-03-13T12:26:40;94783.72;;;9.63;51.47
12077;BME280;12420;42.676;23.262;2023-03-13T12:29:18;94769.56;;;9.72;50.77
12077;BME280;12420;42.676;23.262;2023-03-13T12:31:53;94801.09;;;10.07;50.44
12077;BME280;12420;42.676;23.262;2023-03-13T12:34:35;94766.91;;;9.85;49.22
12077;BME280;12420;42.676;23.262;2023-03-13T12:37:13;94773.13;;;9.67;50.26
12077;BME280;12420;42.676;23.262;2023-03-13T12:39:48;94834.91;;;10.43;50.44
12077;BME280;12420;42.676;23.262;2023-03-13T12:42:44;94670.00;;;9.53;48.96
12077;BME280;12420;42.676;23.262;2023-03-13T12:45:20;94839.16;;;10.69;49.47
12077;BME280;12420;42.676;23.262;2023-03-13T12:48:33;94711.97;;;9.76;49.96
12077;BME280;12420;42.676;23.262;2023-03-13T12:51:18;94708.16;;;9.79;49.84
12077;BME280;12420;42.676;23.262;2023-03-13T12:54:08;94853.53;;;11.05;49.14
12077;BME280;12420;42.676;23.262;2023-03-13T12:57:03;94771.38;;;10.56;48.91
12077;BME280;12420;42.676;23.262;2023-03-13T12:59:43;94750.06;;;10.08;47.92
12077;BME280;12420;42.676;23.262;2023-03-13T13:02:15;94687.28;;;10.03;48.51
12077;BME280;12420;42.676;23.262;2023-03-13T13:04:46;94849.56;;;10.81;48.52
12077;BME280;12420;42.676;23.262;2023-03-13T13:07:24;94808.47;;;10.85;48.46
12077;BME280;12420;42.676;23.262;2023-03-13T13:10:02;94803.06;;;10.93;48.84
12077;BME280;12420;42.676;23.262;2023-03-13T13:12:32;94819.47;;;10.72;46.84
12077;BME280;12420;42.676;23.262;2023-03-13T13:15:18;94723.81;;;9.95;48.31
12077;BME280;12420;42.676;23.262;2023-03-13T13:18:01;94769.75;;;10.23;46.82
12077;BME280;12420;42.676;23.262;2023-03-13T13:20:44;94879.94;;;11.06;47.20
12077;BME280;12420;42.676;23.262;2023-03-13T13:23:27;94688.22;;;9.86;47.44
12077;BME280;12420;42.676;23.262;2023-03-13T13:32:40;94669.09;;;10.07;46.71
12077;BME280;12420;42.676;23.262;2023-03-13T13:35:28;94821.41;;;11.15;46.40